sensor_id;sensor_type;location;lat;lon;timestamp;temperature;humidity
21759;DHT22;11041;50.854;20.580;2023-04-03T00:01:08;1.50;99.90
21759;DHT22;11041;50.854;20.580;2023-04-03T00:03:36;1.50;99.90
21759;DHT22;11041;50.854;20.580;2023-04-03T00:06:04;1.50;99.90
21759;DHT22;11041;50.854;20.580;2023-04-03T00:08:32;1.50;99.90
21759;DHT22;11041;50.854;20.580;2023-04-03T00:10:59;1.70;99.90
21759;DHT22;11041;50.854;20.580;2023-04-03T00:13:26;1.60;99.90
21759;DHT22;11041;50.854;20.580;2023-04-03T00:15:52;1.60;99.90
21759;DHT22;11041;50.854;20.580;2023-04-03T00:18:21;1.70;99.90
21759;DHT22;11041;50.854;20.580;2023-04-03T00:20:48;1.60;99.90
21759;DHT22;11041;50.854;20.580;2023-04-03T00:23:16;1.60;99.90
21759;DHT22;11041;50.854;20.580;2023-04-03T00:25:42;1.60;99.90
21759;DHT22;11041;50.854;20.580;2023-04-03T00:28:10;1.60;99.90
21759;DHT22;11041;50.854;20.580;2023-04-03T00:30:36;1.60;99.90
21759;DHT22;11041;50.854;20.580;2023-04-03T00:33:03;1.60;99.90
21759;DHT22;11041;50.854;20.580;2023-04-03T00:35:29;1.60;99.90
21759;DHT22;11041;50.854;20.580;2023-04-03T00:37:56;1.60;99.90
21759;DHT22;11041;50.854;20.580;2023-04-03T00:40:24;1.60;99.90
21759;DHT22;11041;50.854;20.580;2023-04-03T00:42:58;1.60;99.90
21759;DHT22;11041;50.854;20.580;2023-04-03T00:45:31;1.60;99.90
21759;DHT22;11041;50.854;20.580;2023-04-03T00:48:04;1.50;99.90
21759;DHT22;11041;50.854;20.580;2023-04-03T00:50:35;1.40;99.90
21759;DHT22;11041;50.854;20.580;2023-04-03T00:53:06;1.40;99.90
21759;DHT22;11041;50.854;20.580;2023-04-03T00:55:42;1.40;99.90
21759;DHT22;11041;50.854;20.580;2023-04-03T00:58:10;1.30;99.90
21759;DHT22;11041;50.854;20.580;2023-04-03T01:00:42;1.40;99.90
21759;DHT22;11041;50.854;20.580;2023-04-03T01:03:12;1.30;99.90
21759;DHT22;11041;50.854;20.580;2023-04-03T01:05:40;1.30;99.90
21759;DHT22;11041;50.854;20.580;2023-04-03T01:08:07;1.30;99.90
21759;DHT22;11041;50.854;20.580;2023-04-03T01:10:33;1.30;99.90
21759;DHT22;11041;50.854;20.580;2023-04-03T01:13:01;1.30;99.90
21759;DHT22;11041;50.854;20.580;2023-04-03T01:15:28;1.30;99.90
21759;DHT22;11041;50.854;20.580;2023-04-03T01:18:01;1.40;99.90
21759;DHT22;11041;50.854;20.580;2023-04-03T01:28:23;1.40;99.90
21759;DHT22;11041;50.854;20.580;2023-04-03T01:31:18;1.40;99.90
21759;DHT22;11041;50.854;20.580;2023-04-03T01:33:46;1.40;99.90
21759;DHT22;11041;50.854;20.580;2023-04-03T01:36:22;1.40;99.90
21759;DHT22;11041;50.854;20.580;2023-04-03T01:38:55;1.30;99.90
21759;DHT22;11041;50.854;20.580;2023-04-03T01:41:23;1.30;99.90
21759;DHT22;11041;50.854;20.580;2023-04-03T01:43:50;1.30;99.90
21759;DHT22;11041;50.854;20.580;2023-04-03T01:46:17;1.30;99.90
21759;DHT22;11041;50.854;20.580;2023-04-03T01:48:45;1.20;99.90
21759;DHT22;11041;50.854;20.580;2023-04-03T01:51:11;1.20;99.90
21759;DHT22;11041;50.854;20.580;2023-04-03T01:53:38;1.20;99.90
21759;DHT22;11041;50.854;20.580;2023-04-03T01:56:05;1.20;99.90
21759;DHT22;11041;50.854;20.580;2023-04-03T01:58:31;1.20;99.90
21759;DHT22;11041;50.854;20.580;2023-04-03T02:00:58;1.20;99.90
21759;DHT22;11041;50.854;20.580;2023-04-03T02:03:24;2.60;99.90
21759;DHT22;11041;50.854;20.580;2023-04-03T02:05:51;1.20;99.90
21759;DHT22;11041;50.854;20.580;2023-04-03T02:08:18;1.10;99.90
21759;DHT22;11041;50.854;20.580;2023-04-03T02:10:48;1.10;99.90
21759;DHT22;11041;50.854;20.580;2023-04-03T02:13:16;1.10;99.90
21759;DHT22;11041;50.854;20.580;2023-04-03T02:15:44;1.10;99.90
21759;DHT22;11041;50.854;20.580;2023-04-03T02:18:12;1.10;99.90
21759;DHT22;11041;50.854;20.580;2023-04-03T02:20:38;1.10;99.90
21759;DHT22;11041;50.854;20.580;2023-04-03T02:23:05;1.10;99.90
21759;DHT22;11041;50.854;20.580;2023-04-03T02:25:31;1.10;99.90
21759;DHT22;11041;50.854;20.580;2023-04-03T02:27:59;1.00;99.90
21759;DHT22;11041;50.854;20.580;2023-04-03T02:30:25;1.10;99.90
21759;DHT22;11041;50.854;20.580;2023-04-03T02:32:52;1.10;99.90
21759;DHT22;11041;50.854;20.580;2023-04-03T02:35:19;1.10;99.90
21759;DHT22;11041;50.854;20.580;2023-04-03T02:37:46;1.00;99.90
21759;DHT22;11041;50.854;20.580;2023-04-03T02:40:12;1.00;99.90
21759;DHT22;11041;50.854;20.580;2023-04-03T02:42:39;1.00;99.90
21759;DHT22;11041;50.854;20.580;2023-04-03T02:45:06;1.10;99.90
21759;DHT22;11041;50.854;20.580;2023-04-03T02:47:33;1.00;99.90
21759;DHT22;11041;50.854;20.580;2023-04-03T02:49:59;1.00;99.90
21759;DHT22;11041;50.854;20.580;2023-04-03T02:52:26;1.00;99.90
21759;DHT22;11041;50.854;20.580;2023-04-03T02:54:52;1.00;99.90
21759;DHT22;11041;50.854;20.580;2023-04-03T02:57:19;1.00;99.90
21759;DHT22;11041;50.854;20.580;2023-04-03T02:59:46;1.00;99.90
21759;DHT22;11041;50.854;20.580;2023-04-03T03:02:12;1.00;99.90
21759;DHT22;11041;50.854;20.580;2023-04-03T03:04:39;0.90;99.90
21759;DHT22;11041;50.854;20.580;2023-04-03T03:07:24;0.90;99.90
21759;DHT22;11041;50.854;20.580;2023-04-03T03:09:51;0.80;99.90
21759;DHT22;11041;50.854;20.580;2023-04-03T03:12:18;0.80;99.90
21759;DHT22;11041;50.854;20.580;2023-04-03T03:14:49;0.80;99.90
21759;DHT22;11041;50.854;20.580;2023-04-03T03:17:16;0.70;99.90
21759;DHT22;11041;50.854;20.580;2023-04-03T03:19:43;0.70;99.90
21759;DHT22;11041;50.854;20.580;2023-04-03T03:22:11;0.70;99.90
21759;DHT22;11041;50.854;20.580;2023-04-03T03:24:38;0.70;99.90
21759;DHT22;11041;50.854;20.580;2023-04-03T03:27:05;0.70;99.90
21759;DHT22;11041;50.854;20.580;2023-04-03T03:29:31;0.70;99.90
21759;DHT22;11041;50.854;20.580;2023-04-03T03:31:57;0.70;99.90
21759;DHT22;11041;50.854;20.580;2023-04-03T03:34:24;0.70;99.90
21759;DHT22;11041;50.854;20.580;2023-04-03T03:36:51;0.70;99.90
21759;DHT22;11041;50.854;20.580;2023-04-03T03:39:17;0.70;99.90
21759;DHT22;11041;50.854;20.580;2023-04-03T03:41:44;0.70;99.90
21759;DHT22;11041;50.854;20.580;2023-04-03T03:44:10;0.70;99.90
21759;DHT22;11041;50.854;20.580;2023-04-03T03:46:37;0.70;99.90
21759;DHT22;11041;50.854;20.580;2023-04-03T03:49:03;0.70;99.90
21759;DHT22;11041;50.854;20.580;2023-04-03T03:51:30;0.70;99.90
21759;DHT22;11041;50.854;20.580;2023-04-03T03:53:56;0.70;99.90
21759;DHT22;11041;50.854;20.580;2023-04-03T03:56:23;0.70;99.90
21759;DHT22;11041;50.854;20.580;2023-04-03T03:58:49;0.70;99.90
21759;DHT22;11041;50.854;20.580;2023-04-03T04:01:16;0.80;99.90
21759;DHT22;11041;50.854;20.580;2023-04-03T04:03:44;0.70;99.90
21759;DHT22;11041;50.854;20.580;2023-04-03T04:06:11;0.70;99.90
21759;DHT22;11041;50.854;20.580;2023-04-03T04:08:37;0.70;99.90
21759;DHT22;11041;50.854;20.580;2023-04-03T04:11:04;0.70;99.90
21759;DHT22;11041;50.854;20.580;2023-04-03T04:13:30;0.70;99.90
21759;DHT22;11041;50.854;20.580;2023-04-03T04:15:57;0.70;99.90
21759;DHT22;11041;50.854;20.580;2023-04-03T04:18:23;0.70;99.90
21759;DHT22;11041;50.854;20.580;2023-04-03T04:20:50;0.70;99.90
21759;DHT22;11041;50.854;20.580;2023-04-03T04:23:17;0.70;99.90
21759;DHT22;11041;50.854;20.580;2023-04-03T04:25:49;0.60;99.90
21759;DHT22;11041;50.854;20.580;2023-04-03T04:28:16;0.60;99.90
21759;DHT22;11041;50.854;20.580;2023-04-03T04:30:44;0.60;99.90
21759;DHT22;11041;50.854;20.580;2023-04-03T04:33:11;0.60;99.90
21759;DHT22;11041;50.854;20.580;2023-04-03T04:35:38;0.50;99.90
21759;DHT22;11041;50.854;20.580;2023-04-03T04:38:04;0.60;99.90
21759;DHT22;11041;50.854;20.580;2023-04-03T04:40:32;0.60;99.90
21759;DHT22;11041;50.854;20.580;2023-04-03T04:42:58;0.50;99.90
21759;DHT22;11041;50.854;20.580;2023-04-03T04:45:24;0.60;99.90
21759;DHT22;11041;50.854;20.580;2023-04-03T04:47:51;0.60;99.90
21759;DHT22;11041;50.854;20.580;2023-04-03T04:50:18;0.60;99.90
21759;DHT22;11041;50.854;20.580;2023-04-03T04:52:45;0.60;99.90
21759;DHT22;11041;50.854;20.580;2023-04-03T04:55:12;0.60;99.90
21759;DHT22;11041;50.854;20.580;2023-04-03T04:57:38;0.60;99.90
21759;DHT22;11041;50.854;20.580;2023-04-03T05:00:05;0.60;99.90
21759;DHT22;11041;50.854;20.580;2023-04-03T05:02:32;0.60;99.90
21759;DHT22;11041;50.854;20.580;2023-04-03T05:04:59;0.50;99.90
21759;DHT22;11041;50.854;20.580;2023-04-03T05:07:25;0.60;99.90
21759;DHT22;11041;50.854;20.580;2023-04-03T05:09:52;0.50;99.90
21759;DHT22;11041;50.854;20.580;2023-04-03T05:12:18;0.50;99.90
21759;DHT22;11041;50.854;20.580;2023-04-03T05:14:45;0.50;99.90
21759;DHT22;11041;50.854;20.580;2023-04-03T05:17:11;0.50;99.90
21759;DHT22;11041;50.854;20.580;2023-04-03T05:19:38;0.40;99.90
21759;DHT22;11041;50.854;20.580;2023-04-03T05:22:04;0.40;99.90
21759;DHT22;11041;50.854;20.580;2023-04-03T05:24:31;0.40;99.90
21759;DHT22;11041;50.854;20.580;2023-04-03T05:26:57;0.40;99.90
21759;DHT22;11041;50.854;20.580;2023-04-03T05:29:24;0.40;99.90
21759;DHT22;11041;50.854;20.580;2023-04-03T05:31:51;0.40;99.90
21759;DHT22;11041;50.854;20.580;2023-04-03T05:34:17;0.30;99.90
21759;DHT22;11041;50.854;20.580;2023-04-03T05:36:44;0.40;99.90
21759;DHT22;11041;50.854;20.580;2023-04-03T05:39:11;0.30;99.90
21759;DHT22;11041;50.854;20.580;2023-04-03T05:41:37;0.30;99.90
21759;DHT22;11041;50.854;20.580;2023-04-03T05:44:04;0.30;99.90
21759;DHT22;11041;50.854;20.580;2023-04-03T05:46:30;0.30;99.90
21759;DHT22;11041;50.854;20.580;2023-04-03T05:48:57;0.30;99.90
21759;DHT22;11041;50.854;20.580;2023-04-03T05:51:32;0.30;99.90
21759;DHT22;11041;50.854;20.580;2023-04-03T05:54:27;0.30;99.90
21759;DHT22;11041;50.854;20.580;2023-04-03T05:56:55;0.30;99.90
21759;DHT22;11041;50.854;20.580;2023-04-03T05:59:22;0.20;99.90
21759;DHT22;11041;50.854;20.580;2023-04-03T06:01:48;0.20;99.90
21759;DHT22;11041;50.854;20.580;2023-04-03T06:04:15;0.20;99.90
21759;DHT22;11041;50.854;20.580;2023-04-03T06:06:53;0.20;99.90
21759;DHT22;11041;50.854;20.580;2023-04-03T06:09:25;0.20;99.90
21759;DHT22;11041;50.854;20.580;2023-04-03T06:11:53;0.20;99.90
21759;DHT22;11041;50.854;20.580;2023-04-03T06:14:20;0.20;99.90
21759;DHT22;11041;50.854;20.580;2023-04-03T06:16:47;0.20;99.90
21759;DHT22;11041;50.854;20.580;2023-04-03T06:19:38;0.20;99.90
21759;DHT22;11041;50.854;20.580;2023-04-03T06:22:30;0.10;99.90
21759;DHT22;11041;50.854;20.580;2023-04-03T06:25:21;0.20;99.90
21759;DHT22;11041;50.854;20.580;2023-04-03T06:28:13;0.10;99.90
21759;DHT22;11041;50.854;20.580;2023-04-03T06:31:04;0.00;99.90
21759;DHT22;11041;50.854;20.580;2023-04-03T06:33:55;0.00;99.90
21759;DHT22;11041;50.854;20.580;2023-04-03T06:36:47;0.00;99.90
21759;DHT22;11041;50.854;20.580;2023-04-03T06:39:41;0.00;99.90
21759;DHT22;11041;50.854;20.580;2023-04-03T06:42:32;-0.40;99.90
21759;DHT22;11041;50.854;20.580;2023-04-03T06:45:23;0.00;99.90
21759;DHT22;11041;50.854;20.580;2023-04-03T06:48:32;0.10;99.90
21759;DHT22;11041;50.854;20.580;2023-04-03T06:51:28;0.00;99.90
21759;DHT22;11041;50.854;20.580;2023-04-03T06:54:21;0.00;99.90
21759;DHT22;11041;50.854;20.580;2023-04-03T07:01:20;0.20;99.90
21759;DHT22;11041;50.854;20.580;2023-04-03T07:03:48;0.30;99.90
21759;DHT22;11041;50.854;20.580;2023-04-03T07:06:16;0.40;99.90
21759;DHT22;11041;50.854;20.580;2023-04-03T07:08:46;0.30;99.90
21759;DHT22;11041;50.854;20.580;2023-04-03T07:11:15;0.30;99.90
21759;DHT22;11041;50.854;20.580;2023-04-03T07:13:42;0.40;99.90
21759;DHT22;11041;50.854;20.580;2023-04-03T07:16:09;0.40;99.90
21759;DHT22;11041;50.854;20.580;2023-04-03T07:18:36;0.50;99.90
21759;DHT22;11041;50.854;20.580;2023-04-03T07:21:03;0.40;99.90
21759;DHT22;11041;50.854;20.580;2023-04-03T07:23:30;0.40;99.90
21759;DHT22;11041;50.854;20.580;2023-04-03T07:25:57;0.50;99.90
21759;DHT22;11041;50.854;20.580;2023-04-03T07:28:24;0.60;99.90
21759;DHT22;11041;50.854;20.580;2023-04-03T07:31:03;0.70;99.90
21759;DHT22;11041;50.854;20.580;2023-04-03T07:33:34;0.70;99.90
21759;DHT22;11041;50.854;20.580;2023-04-03T07:36:02;0.50;99.90
21759;DHT22;11041;50.854;20.580;2023-04-03T07:38:29;0.40;99.90
21759;DHT22;11041;50.854;20.580;2023-04-03T07:40:56;0.40;99.90
21759;DHT22;11041;50.854;20.580;2023-04-03T07:43:23;0.30;99.90
21759;DHT22;11041;50.854;20.580;2023-04-03T07:45:51;0.30;99.90
21759;DHT22;11041;50.854;20.580;2023-04-03T07:48:24;0.30;99.90
21759;DHT22;11041;50.854;20.580;2023-04-03T07:50:51;0.40;99.90
21759;DHT22;11041;50.854;20.580;2023-04-03T07:53:18;0.30;99.90
21759;DHT22;11041;50.854;20.580;2023-04-03T07:55:49;0.20;99.90
21759;DHT22;11041;50.854;20.580;2023-04-03T07:58:18;0.30;99.90
21759;DHT22;11041;50.854;20.580;2023-04-03T08:00:45;0.10;99.90
21759;DHT22;11041;50.854;20.580;2023-04-03T08:03:12;0.10;99.90
21759;DHT22;11041;50.854;20.580;2023-04-03T08:05:43;0.10;99.90
21759;DHT22;11041;50.854;20.580;2023-04-03T08:08:14;0.10;99.90
21759;DHT22;11041;50.854;20.580;2023-04-03T08:10:42;0.20;99.90
21759;DHT22;11041;50.854;20.580;2023-04-03T08:13:09;0.30;99.90
21759;DHT22;11041;50.854;20.580;2023-04-03T08:15:36;0.40;99.90
21759;DHT22;11041;50.854;20.580;2023-04-03T08:18:04;0.50;99.90
21759;DHT22;11041;50.854;20.580;2023-04-03T08:20:31;0.50;99.90
21759;DHT22;11041;50.854;20.580;2023-04-03T08:22:57;0.60;99.90
21759;DHT22;11041;50.854;20.580;2023-04-03T08:25:24;0.60;99.90
21759;DHT22;11041;50.854;20.580;2023-04-03T08:27:51;0.50;99.90
21759;DHT22;11041;50.854;20.580;2023-04-03T08:30:17;0.40;99.90
21759;DHT22;11041;50.854;20.580;2023-04-03T08:32:44;0.40;99.90
21759;DHT22;11041;50.854;20.580;2023-04-03T08:35:11;0.40;99.90
21759;DHT22;11041;50.854;20.580;2023-04-03T08:37:39;0.40;99.90
21759;DHT22;11041;50.854;20.580;2023-04-03T08:40:11;0.50;99.90
21759;DHT22;11041;50.854;20.580;2023-04-03T08:43:04;0.60;99.90
21759;DHT22;11041;50.854;20.580;2023-04-03T08:45:52;0.70;99.90
21759;DHT22;11041;50.854;20.580;2023-04-03T08:48:47;0.70;99.90
21759;DHT22;11041;50.854;20.580;2023-04-03T08:51:19;0.70;99.90
21759;DHT22;11041;50.854;20.580;2023-04-03T08:54:06;0.60;99.90
21759;DHT22;11041;50.854;20.580;2023-04-03T08:57:04;0.60;99.90
21759;DHT22;11041;50.854;20.580;2023-04-03T08:59:34;0.70;99.90
21759;DHT22;11041;50.854;20.580;2023-04-03T09:02:27;0.70;99.90
21759;DHT22;11041;50.854;20.580;2023-04-03T09:04:58;0.70;99.90
21759;DHT22;11041;50.854;20.580;2023-04-03T09:07:42;0.80;99.90
21759;DHT22;11041;50.854;20.580;2023-04-03T09:10:14;0.80;99.90
21759;DHT22;11041;50.854;20.580;2023-04-03T09:12:49;0.80;99.90
21759;DHT22;11041;50.854;20.580;2023-04-03T09:19:58;0.90;99.90
21759;DHT22;11041;50.854;20.580;2023-04-03T09:23:42;1.00;99.90
21759;DHT22;11041;50.854;20.580;2023-04-03T09:29:40;0.90;99.90
21759;DHT22;11041;50.854;20.580;2023-04-03T09:32:34;0.90;99.90
21759;DHT22;11041;50.854;20.580;2023-04-03T09:35:31;1.00;99.90
21759;DHT22;11041;50.854;20.580;2023-04-03T09:38:27;1.10;99.90
21759;DHT22;11041;50.854;20.580;2023-04-03T10:01:01;1.50;99.90
21759;DHT22;11041;50.854;20.580;2023-04-03T10:03:36;1.60;99.90
21759;DHT22;11041;50.854;20.580;2023-04-03T10:06:23;1.50;99.90
21759;DHT22;11041;50.854;20.580;2023-04-03T10:09:18;1.60;99.90
21759;DHT22;11041;50.854;20.580;2023-04-03T10:12:09;1.60;99.90
21759;DHT22;11041;50.854;20.580;2023-04-03T10:14:40;1.50;99.90
21759;DHT22;11041;50.854;20.580;2023-04-03T10:26:19;1.80;99.90
21759;DHT22;11041;50.854;20.580;2023-04-03T10:29:37;2.10;99.90
21759;DHT22;11041;50.854;20.580;2023-04-03T10:34:44;2.10;99.90
21759;DHT22;11041;50.854;20.580;2023-04-03T10:37:27;2.00;99.90
21759;DHT22;11041;50.854;20.580;2023-04-03T10:43:09;2.20;99.90
21759;DHT22;11041;50.854;20.580;2023-04-03T10:48:48;2.10;99.90
21759;DHT22;11041;50.854;20.580;2023-04-03T10:51:37;2.10;99.90
21759;DHT22;11041;50.854;20.580;2023-04-03T10:54:46;2.10;99.90
21759;DHT22;11041;50.854;20.580;2023-04-03T10:57:24;2.30;99.90
21759;DHT22;11041;50.854;20.580;2023-04-03T11:00:04;2.60;99.90
21759;DHT22;11041;50.854;20.580;2023-04-03T11:03:03;2.50;99.90
21759;DHT22;11041;50.854;20.580;2023-04-03T11:05:47;2.60;99.90
21759;DHT22;11041;50.854;20.580;2023-04-03T11:08:26;2.60;99.90
21759;DHT22;11041;50.854;20.580;2023-04-03T11:11:20;2.40;99.90
21759;DHT22;11041;50.854;20.580;2023-04-03T11:17:26;2.30;99.90
21759;DHT22;11041;50.854;20.580;2023-04-03T11:25:59;2.40;99.90
21759;DHT22;11041;50.854;20.580;2023-04-03T11:28:33;2.60;99.90
21759;DHT22;11041;50.854;20.580;2023-04-03T11:31:24;2.70;99.90
21759;DHT22;11041;50.854;20.580;2023-04-03T11:34:29;2.60;99.90
21759;DHT22;11041;50.854;20.580;2023-04-03T11:39:58;2.70;99.90
21759;DHT22;11041;50.854;20.580;2023-04-03T11:42:40;2.60;99.90
21759;DHT22;11041;50.854;20.580;2023-04-03T11:53:42;2.80;99.90
21759;DHT22;11041;50.854;20.580;2023-04-03T11:56:28;2.70;99.90
21759;DHT22;11041;50.854;20.580;2023-04-03T11:59:15;2.90;99.90
21759;DHT22;11041;50.854;20.580;2023-04-03T12:01:54;3.00;99.90
21759;DHT22;11041;50.854;20.580;2023-04-03T12:04:24;3.10;99.90
21759;DHT22;11041;50.854;20.580;2023-04-03T12:07:19;3.00;99.90
21759;DHT22;11041;50.854;20.580;2023-04-03T12:21:15;3.30;99.90
21759;DHT22;11041;50.854;20.580;2023-04-03T12:24:04;3.10;99.90
21759;DHT22;11041;50.854;20.580;2023-04-03T12:29:59;3.10;99.90
21759;DHT22;11041;50.854;20.580;2023-04-03T12:41:36;3.50;99.90
21759;DHT22;11041;50.854;20.580;2023-04-03T12:46:47;3.90;99.90
21759;DHT22;11041;50.854;20.580;2023-04-03T12:49:41;4.00;99.90
21759;DHT22;11041;50.854;20.580;2023-04-03T12:54:51;4.40;99.90
21759;DHT22;11041;50.854;20.580;2023-04-03T12:57:22;4.20;99.90
21759;DHT22;11041;50.854;20.580;2023-04-03T12:59:52;4.30;99.90
21759;DHT22;11041;50.854;20.580;2023-04-03T13:02:29;4.20;99.90
21759;DHT22;11041;50.854;20.580;2023-04-03T13:04:59;3.90;99.90
21759;DHT22;11041;50.854;20.580;2023-04-03T13:07:36;4.00;99.90
21759;DHT22;11041;50.854;20.580;2023-04-03T13:12:35;3.90;99.90
21759;DHT22;11041;50.854;20.580;2023-04-03T13:15:30;3.90;99.90
21759;DHT22;11041;50.854;20.580;2023-04-03T13:18:31;3.70;99.90
21759;DHT22;11041;50.854;20.580;2023-04-03T13:21:19;4.00;99.90
21759;DHT22;11041;50.854;20.580;2023-04-03T13:23:53;4.00;99.90
21759;DHT22;11041;50.854;20.580;2023-04-03T13:26:28;4.40;99.90
21759;DHT22;11041;50.854;20.580;2023-04-03T13:29:05;4.40;99.90
21759;DHT22;11041;50.854;20.580;2023-04-03T13:31:45;4.30;99.90
21759;DHT22;11041;50.854;20.580;2023-04-03T13:34:20;4.20;99.90
21759;DHT22;11041;50.854;20.580;2023-04-03T13:39:35;4.00;99.90
21759;DHT22;11041;50.854;20.580;2023-04-03T13:42:23;3.90;99.90
21759;DHT22;11041;50.854;20.580;2023-04-03T13:45:21;3.90;99.90
21759;DHT22;11041;50.854;20.580;2023-04-03T13:47:53;4.00;99.90
21759;DHT22;11041;50.854;20.580;2023-04-03T13:50:51;4.00;99.90
21759;DHT22;11041;50.854;20.580;2023-04-03T13:53:21;4.00;99.90
21759;DHT22;11041;50.854;20.580;2023-04-03T13:56:13;4.10;99.90
21759;DHT22;11041;50.854;20.580;2023-04-03T14:01:48;4.20;99.90
21759;DHT22;11041;50.854;20.580;2023-04-03T14:04:25;4.30;99.90
21759;DHT22;11041;50.854;20.580;2023-04-03T14:06:54;4.50;99.90
21759;DHT22;11041;50.854;20.580;2023-04-03T14:09:24;4.40;99.90
21759;DHT22;11041;50.854;20.580;2023-04-03T14:11:55;4.30;99.90
21759;DHT22;11041;50.854;20.580;2023-04-03T14:14:33;4.20;99.90
21759;DHT22;11041;50.854;20.580;2023-04-03T14:17:03;4.10;99.90
21759;DHT22;11041;50.854;20.580;2023-04-03T14:19:40;4.00;99.90
21759;DHT22;11041;50.854;20.580;2023-04-03T14:22:16;4.00;99.90
21759;DHT22;11041;50.854;20.580;2023-04-03T14:24:45;3.90;99.90
21759;DHT22;11041;50.854;20.580;2023-04-03T14:30:09;3.70;99.90
21759;DHT22;11041;50.854;20.580;2023-04-03T14:32:44;3.70;99.90
21759;DHT22;11041;50.854;20.580;2023-04-03T14:35:11;3.70;99.90
21759;DHT22;11041;50.854;20.580;2023-04-03T14:37:37;3.80;99.90
21759;DHT22;11041;50.854;20.580;2023-04-03T14:40:07;3.80;99.90
21759;DHT22;11041;50.854;20.580;2023-04-03T14:42:37;3.90;99.90
21759;DHT22;11041;50.854;20.580;2023-04-03T14:45:07;3.90;99.90
21759;DHT22;11041;50.854;20.580;2023-04-03T14:47:48;3.80;99.90
21759;DHT22;11041;50.854;20.580;2023-04-03T14:50:20;3.80;99.90
21759;DHT22;11041;50.854;20.580;2023-04-03T14:52:51;3.80;99.90
21759;DHT22;11041;50.854;20.580;2023-04-03T14:55:22;3.70;99.90
21759;DHT22;11041;50.854;20.580;2023-04-03T14:57:50;3.80;99.90
21759;DHT22;11041;50.854;20.580;2023-04-03T15:00:19;3.90;99.90
21759;DHT22;11041;50.854;20.580;2023-04-03T15:02:48;4.10;99.90
21759;DHT22;11041;50.854;20.580;2023-04-03T15:05:15;4.30;99.90
21759;DHT22;11041;50.854;20.580;2023-04-03T15:07:45;4.30;99.90
21759;DHT22;11041;50.854;20.580;2023-04-03T15:10:21;4.30;99.90
21759;DHT22;11041;50.854;20.580;2023-04-03T15:12:53;4.20;99.90
21759;DHT22;11041;50.854;20.580;2023-04-03T15:15:21;4.10;99.90
21759;DHT22;11041;50.854;20.580;2023-04-03T15:17:54;4.10;99.90
21759;DHT22;11041;50.854;20.580;2023-04-03T15:20:25;4.00;99.90
21759;DHT22;11041;50.854;20.580;2023-04-03T15:22:53;4.10;99.90
21759;DHT22;11041;50.854;20.580;2023-04-03T15:25:22;4.00;99.90
21759;DHT22;11041;50.854;20.580;2023-04-03T15:27:49;3.90;99.90
21759;DHT22;11041;50.854;20.580;2023-04-03T15:30:18;3.90;99.90
21759;DHT22;11041;50.854;20.580;2023-04-03T15:32:46;3.90;99.90
21759;DHT22;11041;50.854;20.580;2023-04-03T15:35:13;3.90;99.90
21759;DHT22;11041;50.854;20.580;2023-04-03T15:37:43;3.90;99.90
21759;DHT22;11041;50.854;20.580;2023-04-03T15:40:14;3.80;99.90
21759;DHT22;11041;50.854;20.580;2023-04-03T15:42:41;3.80;99.90
21759;DHT22;11041;50.854;20.580;2023-04-03T15:45:09;3.70;99.90
21759;DHT22;11041;50.854;20.580;2023-04-03T15:47:36;3.80;99.90
21759;DHT22;11041;50.854;20.580;2023-04-03T15:50:04;3.80;99.90
21759;DHT22;11041;50.854;20.580;2023-04-03T15:52:34;3.80;99.90
21759;DHT22;11041;50.854;20.580;2023-04-03T15:55:01;3.90;99.90
21759;DHT22;11041;50.854;20.580;2023-04-03T15:57:28;3.80;99.90
21759;DHT22;11041;50.854;20.580;2023-04-03T15:59:57;3.90;99.90
21759;DHT22;11041;50.854;20.580;2023-04-03T16:02:23;3.90;99.90
21759;DHT22;11041;50.854;20.580;2023-04-03T16:04:54;3.80;99.90
21759;DHT22;11041;50.854;20.580;2023-04-03T16:07:21;3.90;99.90
21759;DHT22;11041;50.854;20.580;2023-04-03T16:09:47;3.90;99.90
21759;DHT22;11041;50.854;20.580;2023-04-03T16:12:15;3.90;99.90
21759;DHT22;11041;50.854;20.580;2023-04-03T16:14:41;3.80;99.90
21759;DHT22;11041;50.854;20.580;2023-04-03T16:17:08;3.80;99.90
21759;DHT22;11041;50.854;20.580;2023-04-03T16:19:34;3.70;99.90
21759;DHT22;11041;50.854;20.580;2023-04-03T16:22:01;3.70;99.90
21759;DHT22;11041;50.854;20.580;2023-04-03T16:24:29;3.70;99.90
21759;DHT22;11041;50.854;20.580;2023-04-03T16:26:57;3.70;99.90
21759;DHT22;11041;50.854;20.580;2023-04-03T16:29:24;3.70;99.90
21759;DHT22;11041;50.854;20.580;2023-04-03T16:31:51;3.70;99.90
21759;DHT22;11041;50.854;20.580;2023-04-03T16:34:18;3.70;99.90
21759;DHT22;11041;50.854;20.580;2023-04-03T16:36:45;3.60;99.90
21759;DHT22;11041;50.854;20.580;2023-04-03T16:39:12;3.60;99.90
21759;DHT22;11041;50.854;20.580;2023-04-03T16:41:40;3.60;99.90
21759;DHT22;11041;50.854;20.580;2023-04-03T16:44:12;3.50;99.90
21759;DHT22;11041;50.854;20.580;2023-04-03T16:47:01;3.40;99.90
21759;DHT22;11041;50.854;20.580;2023-04-03T16:49:36;3.40;99.90
21759;DHT22;11041;50.854;20.580;2023-04-03T16:52:06;3.40;99.90
21759;DHT22;11041;50.854;20.580;2023-04-03T16:54:33;3.40;99.90
21759;DHT22;11041;50.854;20.580;2023-04-03T17:04:49;3.20;99.90
21759;DHT22;11041;50.854;20.580;2023-04-03T17:10:07;2.80;99.90
21759;DHT22;11041;50.854;20.580;2023-04-03T17:12:34;3.20;99.90
21759;DHT22;11041;50.854;20.580;2023-04-03T17:15:00;3.10;99.90
21759;DHT22;11041;50.854;20.580;2023-04-03T17:17:27;3.10;99.90
21759;DHT22;11041;50.854;20.580;2023-04-03T17:19:54;3.10;99.90
21759;DHT22;11041;50.854;20.580;2023-04-03T17:22:21;3.10;99.90
21759;DHT22;11041;50.854;20.580;2023-04-03T17:24:48;3.10;99.90
21759;DHT22;11041;50.854;20.580;2023-04-03T17:27:14;3.10;99.90
21759;DHT22;11041;50.854;20.580;2023-04-03T17:29:40;3.10;99.90
21759;DHT22;11041;50.854;20.580;2023-04-03T17:32:07;3.00;99.90
21759;DHT22;11041;50.854;20.580;2023-04-03T17:34:36;3.00;99.90
21759;DHT22;11041;50.854;20.580;2023-04-03T17:37:06;3.00;99.90
21759;DHT22;11041;50.854;20.580;2023-04-03T17:39:33;3.00;99.90
21759;DHT22;11041;50.854;20.580;2023-04-03T17:42:02;2.90;99.90
21759;DHT22;11041;50.854;20.580;2023-04-03T17:44:31;2.90;99.90
21759;DHT22;11041;50.854;20.580;2023-04-03T17:47:02;2.80;99.90
21759;DHT22;11041;50.854;20.580;2023-04-03T17:49:51;2.80;99.90
21759;DHT22;11041;50.854;20.580;2023-04-03T17:52:46;2.70;99.90
21759;DHT22;11041;50.854;20.580;2023-04-03T17:55:43;2.70;99.90
21759;DHT22;11041;50.854;20.580;2023-04-03T17:58:25;2.70;99.90
21759;DHT22;11041;50.854;20.580;2023-04-03T18:01:23;2.90;99.90
21759;DHT22;11041;50.854;20.580;2023-04-03T18:04:02;2.90;99.90
21759;DHT22;11041;50.854;20.580;2023-04-03T18:06:49;2.70;99.90
21759;DHT22;11041;50.854;20.580;2023-04-03T18:09:35;2.80;99.90
21759;DHT22;11041;50.854;20.580;2023-04-03T18:12:06;2.80;99.90
21759;DHT22;11041;50.854;20.580;2023-04-03T18:14:36;2.80;99.90